PWSweather.com
Personal Weather Stations
Station Observations
UWIDEPER1
Brown County, DePere, WI 54115

Brown CountyDePere, WI 54115

Lat: 44.44, Lon: -88.05

Elevation: 610

Station Type:

Latest ConditionsUpdated 6:15:04 AM CDT Monday, Sep 1, 2014
Currently Today's Max Today's Min Today's Average
Temperature 69.9°F21.1°C 70.6°F21.4°C 68.9°F20.5°C 70.0°F21.1°C
Dew Point 67.2°F19.6°C 67.5°F19.7°C 65.4°F18.6°C 66.6°F19.2°C
Winds 0.9 mph S1.4 kmh S 5.4 mph SSE8.7 kmh SSE - 2.2 mph 3.5 kmh
Wind Gusts 4.0 mph6.4 kmh 11.0 mph17.7 kmh - -
Humidity 91% 91% 87% 89%
Pressure 29.68 in1005.1 mb 29.79 in1008.8 mb 29.68 in1005.1 mb -
Hour Temp Dew Point Humidity Winds Wind Gusts Pressure Precip Precip Rate Daily Precip Total
06:15 AM 69.9°F21.1°C 67.2°F19.6°C 91% 0.9 mph S1.4 kmh S 4.0 mph6.4 kmh 29.68 in1005.1 mb 0.00 in0.0 mm 0.00 in/hr0.0 mm/hr 0.00 in0.0 mm
06:00 AM 70.3°F21.3°C 67.2°F19.6°C 90% 0.9 mph SSW1.4 kmh SSW 3.0 mph4.8 kmh 29.68 in1005.1 mb 0.00 in0.0 mm 0.00 in/hr0.0 mm/hr 0.00 in0.0 mm
05:45 AM 70.4°F21.3°C 67.3°F19.6°C 90% 0.6 mph SW1.0 kmh SW 3.0 mph4.8 kmh 29.68 in1005.1 mb 0.00 in0.0 mm 0.00 in/hr0.0 mm/hr 0.00 in0.0 mm
05:30 AM 70.6°F21.4°C 67.5°F19.7°C 90% 4.7 mph WNW7.6 kmh WNW 8.0 mph12.9 kmh 29.69 in1005.4 mb 0.00 in0.0 mm 0.00 in/hr0.0 mm/hr 0.00 in0.0 mm
05:15 AM 70.6°F21.4°C 67.5°F19.7°C 90% 2.5 mph WSW4.0 kmh WSW 7.0 mph11.3 kmh 29.69 in1005.4 mb 0.00 in0.0 mm 0.00 in/hr0.0 mm/hr 0.00 in0.0 mm
05:00 AM 70.6°F21.4°C 67.5°F19.7°C 90% 3.3 mph SW5.3 kmh SW 8.0 mph12.9 kmh 29.69 in1005.4 mb 0.00 in0.0 mm 0.00 in/hr0.0 mm/hr 0.00 in0.0 mm
04:45 AM 70.4°F21.3°C 67.3°F19.6°C 90% 1.6 mph SW2.6 kmh SW 6.0 mph9.7 kmh 29.69 in1005.4 mb 0.00 in0.0 mm 0.00 in/hr0.0 mm/hr 0.00 in0.0 mm
04:30 AM 70.6°F21.4°C 67.5°F19.7°C 90% 1.9 mph S3.1 kmh S 7.0 mph11.3 kmh 29.69 in1005.4 mb 0.00 in0.0 mm 0.00 in/hr0.0 mm/hr 0.00 in0.0 mm
04:15 AM 70.4°F21.3°C 67.3°F19.6°C 90% 2.8 mph SSE4.5 kmh SSE 8.0 mph12.9 kmh 29.70 in1005.8 mb 0.00 in0.0 mm 0.00 in/hr0.0 mm/hr 0.00 in0.0 mm
04:00 AM 70.3°F21.3°C 67.2°F19.6°C 90% 1.1 mph SW1.8 kmh SW 4.0 mph6.4 kmh 29.70 in1005.8 mb 0.00 in0.0 mm 0.00 in/hr0.0 mm/hr 0.00 in0.0 mm
03:45 AM 70.1°F21.2°C 67.0°F19.4°C 90% 1.5 mph SSW2.4 kmh SSW 5.0 mph8.0 kmh 29.71 in1006.1 mb 0.00 in0.0 mm 0.00 in/hr0.0 mm/hr 0.00 in0.0 mm
03:30 AM 70.1°F21.2°C 66.7°F19.3°C 89% 1.2 mph SSW1.9 kmh SSW 4.0 mph6.4 kmh 29.72 in1006.4 mb 0.00 in0.0 mm 0.00 in/hr0.0 mm/hr 0.00 in0.0 mm
03:15 AM 70.3°F21.3°C 66.9°F19.4°C 89% 3.0 mph S4.8 kmh S 5.0 mph8.0 kmh 29.73 in1006.8 mb 0.00 in0.0 mm 0.00 in/hr0.0 mm/hr 0.00 in0.0 mm
03:00 AM 69.8°F21.0°C 66.4°F19.1°C 89% 2.1 mph S3.4 kmh S 5.0 mph8.0 kmh 29.73 in1006.8 mb 0.00 in0.0 mm 0.00 in/hr0.0 mm/hr 0.00 in0.0 mm
02:45 AM 69.8°F21.0°C 66.4°F19.1°C 89% 4.1 mph SE6.6 kmh SE 7.0 mph11.3 kmh 29.73 in1006.8 mb 0.00 in0.0 mm 0.00 in/hr0.0 mm/hr 0.00 in0.0 mm
02:30 AM 69.9°F21.1°C 66.2°F19.0°C 88% 3.2 mph SSE5.1 kmh SSE 6.0 mph9.7 kmh 29.73 in1006.8 mb 0.00 in0.0 mm 0.00 in/hr0.0 mm/hr 0.00 in0.0 mm
02:15 AM 70.2°F21.2°C 66.5°F19.2°C 88% 4.0 mph SE6.4 kmh SE 7.0 mph11.3 kmh 29.74 in1007.1 mb 0.00 in0.0 mm 0.00 in/hr0.0 mm/hr 0.00 in0.0 mm
02:00 AM 70.3°F21.3°C 66.6°F19.2°C 88% 2.0 mph SSE3.2 kmh SSE 5.0 mph8.0 kmh 29.75 in1007.5 mb 0.00 in0.0 mm 0.00 in/hr0.0 mm/hr 0.00 in0.0 mm
01:45 AM 70.1°F21.2°C 66.4°F19.1°C 88% 2.3 mph SE3.7 kmh SE 8.0 mph12.9 kmh 29.76 in1007.8 mb 0.00 in0.0 mm 0.00 in/hr0.0 mm/hr 0.00 in0.0 mm
01:30 AM 69.8°F21.0°C 66.1°F18.9°C 88% 0.8 mph SW1.3 kmh SW 2.0 mph3.2 kmh 29.77 in1008.1 mb 0.00 in0.0 mm 0.00 in/hr0.0 mm/hr 0.00 in0.0 mm
01:15 AM 69.5°F20.8°C 66.1°F18.9°C 89% 1.5 mph SE2.4 kmh SE 5.0 mph8.0 kmh 29.77 in1008.1 mb 0.00 in0.0 mm 0.00 in/hr0.0 mm/hr 0.00 in0.0 mm
01:00 AM 68.9°F20.5°C 65.5°F18.6°C 89% 5.4 mph SSE8.7 kmh SSE 11.0 mph17.7 kmh 29.77 in1008.1 mb 0.00 in0.0 mm 0.00 in/hr0.0 mm/hr 0.00 in0.0 mm
12:45 AM 69.1°F20.6°C 65.7°F18.7°C 89% 0.1 mph ESE0.2 kmh ESE 1.0 mph1.6 kmh 29.77 in1008.1 mb 0.00 in0.0 mm 0.00 in/hr0.0 mm/hr 0.00 in0.0 mm
12:30 AM 69.1°F20.6°C 65.4°F18.6°C 88% 2.4 mph SSE3.9 kmh SSE 6.0 mph9.7 kmh 29.77 in1008.1 mb 0.00 in0.0 mm 0.00 in/hr0.0 mm/hr 0.00 in0.0 mm
12:15 AM 69.4°F20.8°C 65.7°F18.7°C 88% 2.0 mph SSE3.2 kmh SSE 7.0 mph11.3 kmh 29.79 in1008.8 mb 0.00 in0.0 mm 0.00 in/hr0.0 mm/hr 0.00 in0.0 mm
12:00 AM 69.6°F20.9°C 65.6°F18.7°C 87% Calm Calm -- 29.79 in1008.8 mb 0.00 in0.0 mm 0.00 in/hr0.0 mm/hr 0.00 in0.0 mm